Blackwell, OK

12:27 AM CDT on June 24, 2017 (GMT -0500)
Blackwell

Weather History for KBKN - March, 2013

Change the Weather History Date:

Tuesday, March 5, 2013

  Actual Average (KPNC) Record (KPNC)
Temperature  
Mean Temperature 36 °F -  
Max Temperature 44 °F 60 °F 87 °F (2009)
Min Temperature 28 °F 33 °F 4 °F (1960)
Degree Days  
Heating Degree Days 29    
Moisture  
Dew Point 22 °F    
Average Humidity 57    
Maximum Humidity 87    
Minimum Humidity 37    
Precipitation  
Precipitation 0.00 in - - ()
Sea Level Pressure  
Sea Level Pressure 30.29 in    
Wind  
Wind Speed 17 mph (NW)    
Max Wind Speed 26 mph    
Max Gust Speed 34 mph    
Visibility 10 miles    
Events Rain    
Averages and records for this station are not official NWS values.
T = Trace of Precipitation, MM = Missing Value Source: NWS Daily Summary

Daily Weather History Graph

Daily Weather History Graph

Search for Another Location

Airport or City:

Trip Planner

Search our weather history database for the weather conditions in past years. The results will help you decide how hot, cold, wet, or windy it might be!

Date:

Astronomy

Mar. 05, 2013 Rise Set
Actual Time 6:54 AM CST 6:27 PM CST
Civil Twilight 6:28 AM CST 6:53 PM CST
Nautical Twilight 5:58 AM CST 7:23 PM CST
Astronomical Twilight 5:28 AM CST 7:53 PM CST
Moon 2:00 AM CST (3/5) 12:15 PM CST (3/5)
Length of Visible Light 12h 25m
Length of Day
11h 33m
Last Quarter, 40% of the Moon is Illuminated
Mar 5
Last Quarter
Mar 11
New
Mar 19
First Quarter
Mar 27
Full
Apr 2
Last Quarter

Hourly Weather History & Observations

Time (CST) Temp. Windchill Dew Point Humidity Pressure Visibility Wind Dir Wind Speed Gust Speed Precip Events Conditions
12:15 AM 39.2 °F 28.5 °F 32.0 °F 75% 30.06 in 10.0 mi North 24.2 mph 29.9 mph N/A Rain Light Rain
12:35 AM 39.2 °F 30.8 °F 32.0 °F 75% 30.09 in 10.0 mi NNW 15.0 mph 21.9 mph N/A   Overcast
12:55 AM 39.2 °F 30.5 °F 33.8 °F 81% 30.09 in 10.0 mi NNW 16.1 mph - N/A   Overcast
1:15 AM 39.2 °F 31.2 °F 35.6 °F 87% 30.08 in 10.0 mi NNW 13.8 mph - N/A   Overcast
1:35 AM 39.2 °F 32.0 °F 35.6 °F 87% 30.12 in 10.0 mi NW 11.5 mph 18.4 mph N/A   Overcast
1:55 AM 39.2 °F 31.2 °F 33.8 °F 81% 30.14 in 10.0 mi NW 13.8 mph - N/A   Overcast
2:15 AM 39.2 °F 31.2 °F 28.4 °F 65% 30.13 in 10.0 mi NNW 13.8 mph 19.6 mph N/A   Overcast
2:35 AM 39.2 °F 30.2 °F 26.6 °F 61% 30.14 in 10.0 mi NW 17.3 mph 24.2 mph N/A   Overcast
2:55 AM 37.4 °F 26.9 °F 24.8 °F 60% 30.16 in 10.0 mi NW 20.7 mph 26.5 mph N/A   Mostly Cloudy
3:15 AM 35.6 °F 25.2 °F 23.0 °F 60% 30.17 in 10.0 mi NW 18.4 mph 24.2 mph N/A   Overcast
3:35 AM 35.6 °F 25.2 °F 23.0 °F 60% 30.18 in 10.0 mi NW 18.4 mph 24.2 mph N/A   Scattered Clouds
3:55 AM 33.8 °F 23.2 °F 23.0 °F 65% 30.18 in 10.0 mi NW 17.3 mph 23.0 mph N/A   Scattered Clouds
4:15 AM 33.8 °F 21.6 °F 19.4 °F 56% 30.19 in 10.0 mi NNW 23.0 mph 31.1 mph N/A   Scattered Clouds
4:35 AM 33.8 °F 21.3 °F 19.4 °F 56% 30.20 in 10.0 mi NNW 24.2 mph 31.1 mph N/A   Scattered Clouds
4:55 AM 32.0 °F 20.8 °F 19.4 °F 60% 30.22 in 10.0 mi NNW 17.3 mph - N/A   Mostly Cloudy
5:15 AM 32.0 °F 23.0 °F 19.4 °F 60% 30.23 in 10.0 mi NW 11.5 mph - N/A   Mostly Cloudy
5:35 AM 32.0 °F 22.1 °F 23.0 °F 69% 30.24 in 10.0 mi NNW 13.8 mph - N/A   Partly Cloudy
5:55 AM 32.0 °F 20.8 °F 23.0 °F 69% 30.25 in 10.0 mi NNW 17.3 mph 23.0 mph N/A   Clear
6:15 AM 32.0 °F 20.1 °F 19.4 °F 60% 30.26 in 10.0 mi NNW 19.6 mph - N/A   Clear
7:15 AM 30.2 °F 20.8 °F 19.4 °F 64% 30.28 in 10.0 mi NW 11.5 mph - N/A   Clear
7:35 AM 32.0 °F 22.5 °F 19.4 °F 60% 30.30 in 10.0 mi NW 12.7 mph - N/A   Clear
7:55 AM 32.0 °F 23.0 °F 19.4 °F 60% 30.31 in 10.0 mi WNW 11.5 mph - N/A   Clear
8:15 AM 32.0 °F 21.6 °F 19.4 °F 60% 30.32 in 10.0 mi WNW 15.0 mph - N/A   Clear
8:35 AM 32.0 °F 20.5 °F 19.4 °F 60% 30.33 in 10.0 mi WNW 18.4 mph 24.2 mph N/A   Clear
8:55 AM 33.8 °F 22.5 °F 19.4 °F 56% 30.33 in 10.0 mi NW 19.6 mph 25.3 mph N/A   Clear
9:15 AM 35.6 °F 23.4 °F 17.6 °F 48% 30.34 in 10.0 mi NW 25.3 mph 33.4 mph N/A   Clear
9:35 AM 35.6 °F 24.8 °F 17.6 °F 48% 30.34 in 10.0 mi NW 19.6 mph 33.4 mph N/A   Clear
9:55 AM 35.6 °F 23.2 °F 17.6 °F 48% 30.34 in 10.0 mi NW 26.5 mph 34.5 mph N/A   Clear
10:15 AM 37.4 °F 25.9 °F 17.6 °F 45% 30.34 in 10.0 mi NW 25.3 mph 33.4 mph N/A   Clear
10:35 AM 37.4 °F 26.6 °F 17.6 °F 45% 30.35 in 10.0 mi NW 21.9 mph 32.2 mph N/A   Clear
10:55 AM 37.4 °F 26.1 °F 17.6 °F 45% 30.34 in 10.0 mi NW 24.2 mph 29.9 mph N/A   Clear
11:15 AM 39.2 °F 28.0 °F 17.6 °F 42% 30.34 in 10.0 mi NW 26.5 mph 32.2 mph N/A   Clear
11:35 AM 39.2 °F 28.3 °F 17.6 °F 42% 30.34 in 10.0 mi NNW 25.3 mph 31.1 mph N/A   Clear
11:55 AM 39.2 °F 28.5 °F 17.6 °F 42% 30.34 in 10.0 mi NW 24.2 mph 29.9 mph N/A   Clear
12:15 PM 41.0 °F 31.9 °F 19.4 °F 42% 30.34 in 10.0 mi NW 19.6 mph 29.9 mph N/A   Clear
12:35 PM 41.0 °F 31.1 °F 19.4 °F 42% 30.34 in 10.0 mi NNW 23.0 mph 29.9 mph N/A   Clear
12:55 PM 41.0 °F 32.2 °F 19.4 °F 42% 30.34 in 10.0 mi NW 18.4 mph 29.9 mph N/A   Clear
1:15 PM 41.0 °F 32.8 °F 19.4 °F 42% 30.33 in 10.0 mi WNW 16.1 mph 26.5 mph N/A   Clear
1:35 PM 42.8 °F 34.5 °F 21.2 °F 42% 30.32 in 10.0 mi NW 18.4 mph 24.2 mph N/A   Clear
1:55 PM 42.8 °F 34.0 °F 21.2 °F 42% 30.32 in 10.0 mi NW 20.7 mph 28.8 mph N/A   Clear
2:15 PM 44.6 °F 36.1 °F 23.0 °F 43% 30.31 in 10.0 mi WNW 21.9 mph 28.8 mph N/A   Clear
2:35 PM 44.6 °F 36.4 °F 23.0 °F 43% 30.30 in 10.0 mi NW 20.7 mph 28.8 mph N/A   Clear
2:55 PM 44.6 °F 36.1 °F 21.2 °F 39% 30.30 in 10.0 mi NW 21.9 mph 26.5 mph N/A   Clear
3:15 PM 44.6 °F 36.4 °F 21.2 °F 39% 30.30 in 10.0 mi NNW 20.7 mph 31.1 mph N/A   Clear
3:35 PM 44.6 °F 36.4 °F 23.0 °F 43% 30.30 in 10.0 mi NW 20.7 mph 27.6 mph N/A   Clear
3:55 PM 44.6 °F 36.6 °F 21.2 °F 39% 30.30 in 10.0 mi NW 19.6 mph 26.5 mph N/A   Clear
4:15 PM 44.6 °F 37.4 °F 21.2 °F 39% 30.30 in 10.0 mi NW 16.1 mph 23.0 mph N/A   Clear
4:35 PM 44.6 °F 36.9 °F 23.0 °F 43% 30.30 in 10.0 mi NW 18.4 mph 21.9 mph N/A   Clear
4:55 PM 44.6 °F 37.2 °F 19.4 °F 37% 30.31 in 10.0 mi NNW 17.3 mph 25.3 mph N/A   Clear
5:15 PM 44.6 °F 37.8 °F 21.2 °F 39% 30.31 in 10.0 mi NW 15.0 mph - N/A   Clear
5:35 PM 44.6 °F 37.4 °F 19.4 °F 37% 30.31 in 10.0 mi NNW 16.1 mph - N/A   Clear
5:55 PM 42.8 °F 35.1 °F 19.4 °F 39% 30.31 in 10.0 mi NNW 16.1 mph - N/A   Clear
6:15 PM 41.0 °F 33.1 °F 19.4 °F 42% 30.32 in 10.0 mi NNW 15.0 mph - N/A   Clear
6:35 PM 39.2 °F 32.0 °F 23.0 °F 52% 30.33 in 10.0 mi NNW 11.5 mph - N/A   Clear
6:55 PM 37.4 °F 30.8 °F 21.2 °F 52% 30.33 in 10.0 mi NNW 9.2 mph - N/A   Clear
7:15 PM 35.6 °F 29.2 °F 23.0 °F 60% 30.34 in 10.0 mi NNW 8.1 mph - N/A   Clear
7:35 PM 33.8 °F 26.4 °F 23.0 °F 65% 30.34 in 10.0 mi NNW 9.2 mph - N/A   Clear
7:55 PM 35.6 °F 28.6 °F 23.0 °F 60% 30.35 in 10.0 mi NNW 9.2 mph - N/A   Clear
8:15 PM 33.8 °F 27.0 °F 23.0 °F 65% 30.35 in 10.0 mi NNW 8.1 mph - N/A   Clear
8:55 PM 32.0 °F 24.8 °F 23.0 °F 69% 30.36 in 10.0 mi NNW 8.1 mph - N/A   Clear
9:15 PM 32.0 °F 24.8 °F 23.0 °F 69% 30.37 in 10.0 mi NNW 8.1 mph - N/A   Clear
9:35 PM 32.0 °F 24.8 °F 21.2 °F 64% 30.37 in 10.0 mi NNW 8.1 mph - N/A   Clear
9:55 PM 30.2 °F 23.4 °F 21.2 °F 69% 30.38 in 10.0 mi NNW 6.9 mph - N/A   Clear
10:15 PM 28.4 °F 20.4 °F 23.0 °F 80% 30.38 in 10.0 mi NW 8.1 mph - N/A   Clear
10:35 PM 28.4 °F 20.4 °F 23.0 °F 80% 30.39 in 10.0 mi NW 8.1 mph - N/A   Clear
10:55 PM 28.4 °F 21.2 °F 23.0 °F 80% 30.39 in 10.0 mi WNW 6.9 mph - N/A   Clear
11:15 PM 28.4 °F 20.4 °F 23.0 °F 80% 30.39 in 10.0 mi NW 8.1 mph - N/A   Clear
11:35 PM 28.4 °F 21.2 °F 23.0 °F 80% 30.38 in 10.0 mi NW 6.9 mph - N/A   Clear
11:55 PM 28.4 °F 22.2 °F 23.0 °F 80% 30.38 in 10.0 mi NW 5.8 mph - N/A   Clear